Whitewater, MO (63785)

9:37 PM CST on December 27, 2014 (GMT -0600)
rural | Change Station
CLOSE
Current Station
Personal Weather Station
Location: Whitewater, MO
Elevation: 410 ft
Nearby Weather Stations

Elev 410 ft 37.24 °N, 89.86 °W | Updated 5 seconds ago

Overcast
Overcast
38.7 °F
Feels Like 34 °F
N
6.0
Wind Variable Wind from NW
Gusts 12.0 mph

Today
High -- | Low -- °F
--% Chance of Precip.
Yesterday
High -- | Low -- °F
Precip. -- in
7:11 AM 4:48 PM
Waxing Crescent, 43% visible
Pressure 30.17 in
Visibility 10.0 miles
Clouds Mostly Cloudy 1200 ft
Overcast 2100 ft
Windchill 34 °F
Dew Point 37 °F
Humidity 94%
Rainfall 0.45 in
Snow Depth Not available.
UV 0 out of 12
Pollen .80 out of 12
Air Quality Not available.
Flu Activity Not available.
SPECI KCGI 280328Z AUTO 36013KT 10SM BKN012 OVC021 04/03 A3017 RMK AO2 RAE13 P0000 T00440033 TSNO

More Conditions Fewer Conditions

Pressure 30.17 in
Visibility 10.0 miles
Clouds Mostly Cloudy 1200 ft
Overcast 2100 ft
Windchill 34 °F
Dew Point 37 °F
Humidity 94%
Rainfall 0.45 in
Snow Depth Not available.
UV 0 out of 12
Pollen .80 out of 12
Air Quality Not available.
Flu Activity Not available.
SPECI KCGI 280328Z AUTO 36013KT 10SM BKN012 OVC021 04/03 A3017 RMK AO2 RAE13 P0000 T00440033 TSNO

More Conditions Fewer Conditions

10-Day Weather Forecast

Almanac

Astronomy

Dec. 27, 2014 Rise Set
Actual Time
Civil Twilight
Nautical Twilight
Astronomical Twilight
Moon
Length of Visible Light
Length of Day
Tomorrow will be .
, % of the Moon is Illuminated

Today's Extremes

State Highs State Lows

Community

WunderPhotos

Upload Photos

1,781,180 photos uploaded!

WunderBlogs® & News

Nearby

Air Quality

  Air Quality AQ Index Pollutant
Not available.

Snow Depth

Station Depth Elevation

Earthquake Activity

City Distance Mag. Time & Date
Minimum magnitude displayed is 2.5.

Coastal Water Temperatures

Place Temperature

Nearby Weather Stations